Terminal Aerodrome Forecast
Issued by NWS Shreveport, LA

Home | Current Version | Previous Version | Text Only | Print | Product List | Glossary On
Versions: 1 2 3 4 5 6 7 8 9 10 11 12 13 14 15 16 17 18 19
000
FTUS44 KSHV 302338
TAFMLU
TAF
KMLU 302338Z 3100/3124 24005KT P6SM OVC070
     FM310300 18003KT P6SM FEW025 SCT200
     FM311200 20006KT P6SM BKN020 OVC150
      TEMPO 3112/3116 5SM BR OVC015
     FM311600 23008KT P6SM SCT025 OVC035=

USA.gov is the U.S. government's official web portal to all federal, state and local government web resources and services.